Surry, New Hampshire
Current Conditions -  °F | °C
As of 2:55 PM on Saturday 25 Oct 2014 (Local Time) from KEEN Reporting Station
Clear Clear  
Wind Chill: 63°   Ceiling: Unl
Heat Index: 63°   Visibility: 10mi
Dew Point: 37°   Wind: 8mph
Humidity: 39%   Direction: 240°WSW
Pressure: 29.63"   Gusts: NA
Location:  42.9764°N, 72.2744°W
Report Text: KEEN 251855Z AUTO 24007KT 10SM CLR 17/03 A2963 RMK AO1
Loading
Personal Weather Stations






























Interactive Weather Map
Tropical Storm Tracking
New forecast layout! Learn more

10-Day Weather Forecast

Advertisements
Track Severe Weather on mobile